createdAt,value
2023-04-01T00:01:19.756Z,82.33
2023-04-01T00:03:49.561Z,82.35
2023-04-01T00:06:19.785Z,82.57
2023-04-01T00:08:48.552Z,83.16
2023-04-01T00:11:18.296Z,82.97
2023-04-01T00:13:49.689Z,82.72
2023-04-01T00:16:22.096Z,82.20
2023-04-01T00:18:51.966Z,82.03
2023-04-01T00:21:23.054Z,81.46
2023-04-01T00:23:52.277Z,81.75
2023-04-01T00:26:23.121Z,81.92
2023-04-01T00:28:52.306Z,82.22
2023-04-01T00:31:21.779Z,82.46
2023-04-01T00:33:50.741Z,82.60
2023-04-01T00:36:25.490Z,82.71
2023-04-01T00:38:54.259Z,82.73
2023-04-01T00:41:23.102Z,82.77
2023-04-01T00:43:53.205Z,82.25
2023-04-01T00:46:21.930Z,82.45
2023-04-01T00:48:56.576Z,82.25
2023-04-01T00:51:30.925Z,82.31
2023-04-01T00:54:02.948Z,81.93
2023-04-01T00:56:51.038Z,82.22
2023-04-01T00:59:28.463Z,82.57
2023-04-01T01:01:57.598Z,82.30
2023-04-01T01:04:32.568Z,82.34
2023-04-01T01:07:38.081Z,82.51
2023-04-01T01:10:40.146Z,82.75
2023-04-01T01:13:12.776Z,83.03
2023-04-01T01:16:12.124Z,82.99
2023-04-01T01:19:10.739Z,82.81
2023-04-01T01:22:19.767Z,82.93
2023-04-01T01:25:19.191Z,82.53
2023-04-01T01:28:30.968Z,82.84
2023-04-01T01:31:22.323Z,82.69
2023-04-01T01:34:09.990Z,82.78
2023-04-01T01:36:41.677Z,82.74
2023-04-01T01:39:15.111Z,82.47
2023-04-01T01:41:46.372Z,82.50
2023-04-01T01:44:17.432Z,82.11
2023-04-01T01:46:47.118Z,82.31
2023-04-01T01:49:18.263Z,82.53
2023-04-01T01:51:46.998Z,82.43
2023-04-01T01:54:19.068Z,82.69
2023-04-01T01:56:52.924Z,82.69
2023-04-01T01:59:23.548Z,82.97
2023-04-01T02:01:56.962Z,83.41
2023-04-01T02:04:26.938Z,83.61
2023-04-01T02:07:04.705Z,83.62
2023-04-01T02:09:35.397Z,83.56
2023-04-01T02:12:10.894Z,83.41
2023-04-01T02:14:55.955Z,83.10
2023-04-01T02:17:36.950Z,82.81
2023-04-01T02:20:22.561Z,82.80
2023-04-01T02:22:55.935Z,82.64
2023-04-01T02:25:32.324Z,82.76
2023-04-01T02:28:02.036Z,82.77
2023-04-01T02:30:34.968Z,83.04
2023-04-01T02:33:06.752Z,82.93
2023-04-01T02:35:38.660Z,82.88
2023-04-01T02:38:10.370Z,83.00
2023-04-01T02:40:52.960Z,83.04
2023-04-01T02:43:22.595Z,82.86
2023-04-01T02:45:51.211Z,82.71
2023-04-01T02:48:20.290Z,82.48
2023-04-01T02:50:49.220Z,82.26
2023-04-01T02:53:18.603Z,81.96
2023-04-01T02:55:47.432Z,81.74
2023-04-01T02:58:16.120Z,81.74
2023-04-01T03:00:44.859Z,81.74
2023-04-01T03:03:14.816Z,81.96
2023-04-01T03:05:43.615Z,81.96
2023-04-01T03:08:13.018Z,81.80
2023-04-01T03:10:41.759Z,82.06
2023-04-01T03:13:10.477Z,81.86
2023-04-01T03:15:39.157Z,81.85
2023-04-01T03:18:07.742Z,81.80
2023-04-01T03:20:37.200Z,81.73
2023-04-01T03:23:06.197Z,81.78
2023-04-01T03:25:35.107Z,82.32
2023-04-01T03:28:04.561Z,82.38
2023-04-01T03:30:33.141Z,82.51
2023-04-01T03:33:02.181Z,82.75
2023-04-01T03:35:34.646Z,82.75
2023-04-01T03:38:04.578Z,82.79
2023-04-01T03:40:34.327Z,82.80
2023-04-01T03:43:03.299Z,82.86
2023-04-01T03:45:32.181Z,82.72
2023-04-01T03:48:01.055Z,82.98
2023-04-01T03:50:31.203Z,82.79
2023-04-01T03:53:01.103Z,82.88
2023-04-01T03:55:30.005Z,82.76
2023-04-01T03:57:58.858Z,83.08
2023-04-01T04:00:27.485Z,83.16
2023-04-01T04:02:59.843Z,83.35
2023-04-01T04:05:33.093Z,83.55
2023-04-01T04:08:02.934Z,83.59
2023-04-01T04:10:31.716Z,83.65
2023-04-01T04:13:00.403Z,83.90
2023-04-01T04:15:30.966Z,83.87
2023-04-01T04:17:59.973Z,84.12
2023-04-01T04:20:28.545Z,84.29
2023-04-01T04:22:57.380Z,84.55
2023-04-01T04:25:26.116Z,84.40
2023-04-01T04:27:54.938Z,84.66
2023-04-01T04:30:24.884Z,84.63
2023-04-01T04:32:53.727Z,84.70
2023-04-01T04:35:22.404Z,84.85
2023-04-01T04:37:51.131Z,84.87
2023-04-01T04:40:20.944Z,84.83
2023-04-01T04:42:49.545Z,84.22
2023-04-01T04:45:18.433Z,83.90
2023-04-01T04:47:54.854Z,84.30
2023-04-01T04:50:25.163Z,84.58
2023-04-01T04:52:53.845Z,84.35
2023-04-01T04:55:23.313Z,84.51
2023-04-01T04:58:00.656Z,84.93
2023-04-01T05:00:29.501Z,84.89
2023-04-01T05:03:01.926Z,85.04
2023-04-01T05:05:31.281Z,84.98
2023-04-01T05:08:00.527Z,85.36
2023-04-01T05:10:29.530Z,85.37
2023-04-01T05:12:59.184Z,85.12
2023-04-01T05:15:27.889Z,85.04
2023-04-01T05:17:57.280Z,84.84
2023-04-01T05:20:26.302Z,84.98
2023-04-01T05:22:58.754Z,84.56
2023-04-01T05:25:27.554Z,84.09
2023-04-01T05:27:56.595Z,83.72
2023-04-01T05:30:25.760Z,83.50
2023-04-01T05:33:04.218Z,82.89
2023-04-01T05:35:33.290Z,82.77
2023-04-01T05:38:02.795Z,82.49
2023-04-01T05:40:33.670Z,82.66
2023-04-01T05:43:02.264Z,82.65
2023-04-01T05:45:31.324Z,82.69
2023-04-01T05:48:15.138Z,82.67
2023-04-01T05:50:43.800Z,82.88
2023-04-01T05:53:13.308Z,82.45
2023-04-01T05:55:44.563Z,82.49
2023-04-01T05:58:13.297Z,82.15
2023-04-01T06:00:42.697Z,82.08
2023-04-01T06:03:11.727Z,82.04
2023-04-01T06:05:44.647Z,81.99
2023-04-01T06:08:19.643Z,81.62
2023-04-01T06:11:03.179Z,81.88
2023-04-01T06:14:19.669Z,81.74
2023-04-01T06:17:24.030Z,81.38
2023-04-01T06:20:24.394Z,81.62
2023-04-01T06:23:19.872Z,81.17
2023-04-01T06:26:00.688Z,80.37
2023-04-01T06:28:48.577Z,79.36
2023-04-01T06:31:25.996Z,78.17
2023-04-01T06:34:48.712Z,77.29
2023-04-01T06:37:44.460Z,77.21
2023-04-01T06:40:46.508Z,77.50
2023-04-01T06:43:42.063Z,77.38
2023-04-01T06:46:42.278Z,76.90
2023-04-01T06:50:08.790Z,76.47
2023-04-01T06:53:14.101Z,76.14
2023-04-01T06:56:38.737Z,74.47
2023-04-01T06:59:26.499Z,75.18
2023-04-01T07:02:05.931Z,74.97
2023-04-01T07:04:39.549Z,74.90
2023-04-01T07:07:36.814Z,74.00
2023-04-01T07:10:18.201Z,74.02
2023-04-01T07:14:01.312Z,74.29
2023-04-01T07:17:01.399Z,75.26
2023-04-01T07:19:58.859Z,76.22
2023-04-01T07:22:38.074Z,77.67
2023-04-01T07:25:26.482Z,77.25
2023-04-01T07:28:18.202Z,78.38
2023-04-01T07:30:54.031Z,79.47
2023-04-01T07:33:54.756Z,81.19
2023-04-01T07:37:03.676Z,83.26
2023-04-01T07:40:00.917Z,83.26
2023-04-01T07:42:46.046Z,82.41
2023-04-01T07:45:26.955Z,81.79
2023-04-01T07:48:32.441Z,80.86
2023-04-01T07:51:36.277Z,80.27
2023-04-01T07:54:15.791Z,79.02
2023-04-01T07:57:20.197Z,79.32
2023-04-01T08:00:42.612Z,78.46
2023-04-01T08:03:33.904Z,77.83
2023-04-01T08:06:48.800Z,78.28
2023-04-01T08:09:55.150Z,77.82
2023-04-01T08:13:42.414Z,78.15
2023-04-01T08:16:59.023Z,78.37
2023-04-01T08:20:31.455Z,78.84
2023-04-01T08:23:13.969Z,79.17
2023-04-01T08:25:57.355Z,79.28
2023-04-01T08:28:46.208Z,79.33
2023-04-01T08:31:33.442Z,79.84
2023-04-01T08:34:09.678Z,80.30
2023-04-01T08:36:48.249Z,80.63
2023-04-01T08:39:31.541Z,80.75
2023-04-01T08:42:44.665Z,80.84
2023-04-01T08:46:01.943Z,80.63
2023-04-01T08:49:04.750Z,81.76
2023-04-01T08:52:20.172Z,82.40
2023-04-01T08:55:16.819Z,82.78
2023-04-01T08:59:00.946Z,82.73
2023-04-01T09:02:00.106Z,83.57
2023-04-01T09:06:22.168Z,83.13
2023-04-01T09:09:03.626Z,83.54
2023-04-01T09:12:18.954Z,83.49
2023-04-01T09:15:18.572Z,83.30
2023-04-01T09:18:12.071Z,83.09
2023-04-01T09:21:24.835Z,82.87
2023-04-01T09:24:20.940Z,82.56
2023-04-01T09:27:15.265Z,82.53
2023-04-01T09:29:57.020Z,82.36
2023-04-01T09:32:46.991Z,82.49
2023-04-01T09:35:42.615Z,82.40
2023-04-01T09:38:35.357Z,82.23
2023-04-01T09:41:31.797Z,82.39
2023-04-01T09:44:37.290Z,82.01
2023-04-01T09:47:39.055Z,82.32
2023-04-01T09:50:28.527Z,82.46
2023-04-01T09:53:38.652Z,82.76
2023-04-01T09:56:19.928Z,81.88
2023-04-01T09:58:54.605Z,81.95
2023-04-01T10:02:11.054Z,80.79
2023-04-01T10:05:22.716Z,80.15
2023-04-01T10:08:31.707Z,79.58
2023-04-01T10:11:22.682Z,79.16
2023-04-01T10:14:18.607Z,78.66
2023-04-01T10:17:12.401Z,78.13
2023-04-01T10:20:20.811Z,77.84
2023-04-01T10:23:27.679Z,76.25
2023-04-01T10:26:25.540Z,76.20
2023-04-01T10:29:26.527Z,75.65
2023-04-01T10:32:43.578Z,75.90
2023-04-01T10:35:40.738Z,75.16
2023-04-01T10:38:46.579Z,76.22
2023-04-01T10:41:18.279Z,76.86
2023-04-01T10:45:04.511Z,76.88
2023-04-01T10:48:04.555Z,76.70
2023-04-01T10:51:24.888Z,76.24
2023-04-01T10:54:08.906Z,77.01
2023-04-01T10:57:58.234Z,76.14
2023-04-01T11:01:13.813Z,75.57
2023-04-01T11:04:10.084Z,72.95
2023-04-01T11:07:09.104Z,73.70
2023-04-01T11:10:02.657Z,73.72
2023-04-01T11:13:28.965Z,73.19
2023-04-01T11:16:00.845Z,71.54
2023-04-01T11:19:05.882Z,70.91
2023-04-01T11:21:54.697Z,69.74
2023-04-01T11:25:20.593Z,69.13
2023-04-01T11:28:39.176Z,68.86
2023-04-01T11:31:41.876Z,69.94
2023-04-01T11:35:03.290Z,70.09
2023-04-01T11:38:03.598Z,68.81
2023-04-01T11:41:26.797Z,69.54
2023-04-01T11:45:17.256Z,68.76
2023-04-01T11:48:36.045Z,67.66
2023-04-01T11:51:16.949Z,67.93
2023-04-01T11:54:16.381Z,68.12
2023-04-01T11:57:24.959Z,68.87
2023-04-01T12:00:04.073Z,68.83
2023-04-01T12:03:25.154Z,68.63
2023-04-01T12:06:25.299Z,68.91
2023-04-01T12:09:06.201Z,69.16
2023-04-01T12:11:42.238Z,68.64
2023-04-01T12:14:44.522Z,68.88
2023-04-01T12:17:45.275Z,68.82
2023-04-01T12:20:14.096Z,69.01
2023-04-01T12:23:00.593Z,69.35
2023-04-01T12:26:04.032Z,69.11
2023-04-01T12:28:46.112Z,69.45
2023-04-01T12:32:05.363Z,69.65
2023-04-01T12:34:36.697Z,68.55
2023-04-01T12:37:19.308Z,69.47
2023-04-01T12:39:51.198Z,69.23
2023-04-01T12:42:48.741Z,69.34
2023-04-01T12:45:56.716Z,69.79
2023-04-01T12:49:01.300Z,70.89
2023-04-01T12:51:39.712Z,71.20
2023-04-01T12:54:46.476Z,70.48
2023-04-01T12:57:27.162Z,71.39
2023-04-01T13:00:33.043Z,68.99
2023-04-01T13:03:29.142Z,69.97
2023-04-01T13:06:45.220Z,67.97
2023-04-01T13:09:18.340Z,68.90
2023-04-01T13:12:21.413Z,69.17
2023-04-01T13:15:11.933Z,69.24
2023-04-01T13:17:55.409Z,68.60
2023-04-01T13:21:09.435Z,67.80
2023-04-01T13:23:59.115Z,67.80
2023-04-01T13:26:39.845Z,67.38
2023-04-01T13:29:14.271Z,67.59
2023-04-01T13:31:58.036Z,67.94
2023-04-01T13:34:53.764Z,67.94
2023-04-01T13:37:28.966Z,67.66
2023-04-01T13:40:27.424Z,67.70
2023-04-01T13:43:38.650Z,67.49
2023-04-01T13:46:16.989Z,67.53
2023-04-01T13:48:57.740Z,67.30
2023-04-01T13:52:04.332Z,67.45
2023-04-01T13:55:03.341Z,67.88
2023-04-01T13:58:21.571Z,67.88
2023-04-01T14:01:20.585Z,68.13
2023-04-01T14:04:41.597Z,68.17
2023-04-01T14:07:10.280Z,67.48
2023-04-01T14:10:10.582Z,66.71
2023-04-01T14:13:40.957Z,66.75
2023-04-01T14:16:35.627Z,66.10
2023-04-01T14:19:29.083Z,66.68
2023-04-01T14:22:24.318Z,65.63
2023-04-01T14:25:23.621Z,65.58
2023-04-01T14:27:58.018Z,65.98
2023-04-01T14:31:13.992Z,65.88
2023-04-01T14:34:45.077Z,66.47
2023-04-01T14:37:49.913Z,66.46
2023-04-01T14:40:40.871Z,66.59
2023-04-01T14:43:30.062Z,66.85
2023-04-01T14:47:06.046Z,67.03
2023-04-01T14:49:48.668Z,67.37
2023-04-01T14:52:35.502Z,67.49
2023-04-01T14:55:29.529Z,67.80
2023-04-01T14:58:20.030Z,67.67
2023-04-01T15:01:13.186Z,67.58
2023-04-01T15:03:56.623Z,67.92
2023-04-01T15:06:53.722Z,68.19
2023-04-01T15:09:32.381Z,68.18
2023-04-01T15:12:25.761Z,68.28
2023-04-01T15:15:03.928Z,68.48
2023-04-01T15:17:44.198Z,68.69
2023-04-01T15:20:54.883Z,69.15
2023-04-01T15:23:41.858Z,69.34
2023-04-01T15:26:58.757Z,69.54
2023-04-01T15:30:18.981Z,69.99
2023-04-01T15:33:10.723Z,70.16
2023-04-01T15:36:01.547Z,70.19
2023-04-01T15:38:52.298Z,70.44
2023-04-01T15:41:36.652Z,71.07
2023-04-01T15:44:05.308Z,71.33
2023-04-01T15:46:58.317Z,71.49
2023-04-01T15:49:43.574Z,71.50
2023-04-01T15:52:26.297Z,71.69
2023-04-01T15:55:22.210Z,72.25
2023-04-01T15:58:43.399Z,72.65
2023-04-01T16:01:43.910Z,72.83
2023-04-01T16:04:43.750Z,73.25
2023-04-01T16:07:38.194Z,73.48
2023-04-01T16:10:28.545Z,73.31
2023-04-01T16:13:34.176Z,73.77
2023-04-01T16:16:27.198Z,74.20
2023-04-01T16:19:24.216Z,74.47
2023-04-01T16:21:59.402Z,74.61
2023-04-01T16:24:52.105Z,74.56
2023-04-01T16:27:23.479Z,74.48
2023-04-01T16:30:05.027Z,74.43
2023-04-01T16:32:52.356Z,74.86
2023-04-01T16:35:56.997Z,75.12
2023-04-01T16:38:51.593Z,75.38
2023-04-01T16:41:33.139Z,75.06
2023-04-01T16:44:20.644Z,75.40
2023-04-01T16:47:14.339Z,75.55
2023-04-01T16:49:59.637Z,75.29
2023-04-01T16:52:44.505Z,75.55
2023-04-01T16:55:22.453Z,75.30
2023-04-01T16:58:00.847Z,75.35
2023-04-01T17:00:41.799Z,75.09
2023-04-01T17:03:27.206Z,75.43
2023-04-01T17:06:14.500Z,75.09
2023-04-01T17:09:15.007Z,75.20
2023-04-01T17:11:43.906Z,75.62
2023-04-01T17:14:46.688Z,75.43
2023-04-01T17:17:49.131Z,75.53
2023-04-01T17:20:39.074Z,75.43
2023-04-01T17:23:33.348Z,75.38
2023-04-01T17:26:11.492Z,75.53
2023-04-01T17:28:56.098Z,75.78
2023-04-01T17:31:27.371Z,75.88
2023-04-01T17:34:05.187Z,76.46
2023-04-01T17:36:53.977Z,76.94
2023-04-01T17:39:41.688Z,77.45
2023-04-01T17:42:25.954Z,77.60
2023-04-01T17:45:24.151Z,78.72
2023-04-01T17:48:34.628Z,78.91
2023-04-01T17:51:44.883Z,79.23
2023-04-01T17:54:33.238Z,79.16
2023-04-01T17:58:14.113Z,78.89
2023-04-01T18:01:03.378Z,79.66
2023-04-01T18:04:12.210Z,79.61
2023-04-01T18:06:51.028Z,79.95
2023-04-01T18:09:43.387Z,80.09
2023-04-01T18:12:39.784Z,80.32
2023-04-01T18:16:07.809Z,81.04
2023-04-01T18:18:58.324Z,81.16
2023-04-01T18:21:38.385Z,81.53
2023-04-01T18:24:21.712Z,81.70
2023-04-01T18:27:19.250Z,82.35
2023-04-01T18:30:09.000Z,82.46
2023-04-01T18:33:05.704Z,82.86
2023-04-01T18:36:27.864Z,83.11
2023-04-01T18:39:04.663Z,83.64
2023-04-01T18:42:06.079Z,83.98
2023-04-01T18:45:16.980Z,84.06
2023-04-01T18:48:14.748Z,84.45
2023-04-01T18:51:11.830Z,84.60
2023-04-01T18:54:23.493Z,84.60
2023-04-01T18:56:52.333Z,85.10
2023-04-01T18:59:40.819Z,84.82
2023-04-01T19:03:18.108Z,84.86
2023-04-01T19:05:51.077Z,85.36
2023-04-01T19:08:24.928Z,85.42
2023-04-01T19:11:11.947Z,85.25
2023-04-01T19:13:43.321Z,85.44
2023-04-01T19:16:33.487Z,85.49
2023-04-01T19:19:40.579Z,85.70
2023-04-01T19:22:41.644Z,86.23
2023-04-01T19:25:39.321Z,86.42
2023-04-01T19:28:50.034Z,86.86
2023-04-01T19:32:06.782Z,87.48
2023-04-01T19:35:35.478Z,87.90
2023-04-01T19:38:54.650Z,88.29
2023-04-01T19:41:32.416Z,89.02
2023-04-01T19:44:16.060Z,89.09
2023-04-01T19:46:59.739Z,88.70
2023-04-01T19:49:31.181Z,89.48
2023-04-01T19:52:32.765Z,89.80
2023-04-01T19:55:33.463Z,90.08
2023-04-01T19:58:14.043Z,90.15
2023-04-01T20:00:54.148Z,90.64
2023-04-01T20:03:56.486Z,90.26
2023-04-01T20:06:33.813Z,90.48
2023-04-01T20:09:49.689Z,90.29
2023-04-01T20:12:43.884Z,90.73
2023-04-01T20:15:57.192Z,91.47
2023-04-01T20:18:58.412Z,91.41
2023-04-01T20:21:48.919Z,91.55
2023-04-01T20:24:47.831Z,91.43
2023-04-01T20:27:33.610Z,91.43
2023-04-01T20:30:29.728Z,91.42
2023-04-01T20:33:27.465Z,91.52
2023-04-01T20:36:20.531Z,91.15
2023-04-01T20:39:26.096Z,91.55
2023-04-01T20:42:13.884Z,91.55
2023-04-01T20:45:22.666Z,91.95
2023-04-01T20:48:56.181Z,91.91
2023-04-01T20:51:31.424Z,91.95
2023-04-01T20:54:22.160Z,91.85
2023-04-01T20:57:24.785Z,92.13
2023-04-01T21:00:01.153Z,92.74
2023-04-01T21:03:28.227Z,93.05
2023-04-01T21:06:50.358Z,93.84
2023-04-01T21:09:24.624Z,94.18
2023-04-01T21:12:28.656Z,94.21
2023-04-01T21:15:13.711Z,94.08
2023-04-01T21:18:08.269Z,93.96
2023-04-01T21:21:13.767Z,94.10
2023-04-01T21:23:51.319Z,94.55
2023-04-01T21:26:34.992Z,94.28
2023-04-01T21:29:52.743Z,94.60
2023-04-01T21:32:47.053Z,94.48
2023-04-01T21:35:53.742Z,94.33
2023-04-01T21:38:40.190Z,94.09
2023-04-01T21:41:21.289Z,94.54
2023-04-01T21:44:19.905Z,94.28
2023-04-01T21:47:20.667Z,94.08
2023-04-01T21:50:40.983Z,94.20
2023-04-01T21:53:28.799Z,94.43
2023-04-01T21:56:48.487Z,93.82
2023-04-01T21:59:49.046Z,94.00
2023-04-01T22:02:53.977Z,94.14
2023-04-01T22:05:43.689Z,94.24
2023-04-01T22:08:36.446Z,93.85
2023-04-01T22:11:46.208Z,93.85
2023-04-01T22:14:35.090Z,94.06
2023-04-01T22:17:45.206Z,94.21
2023-04-01T22:21:14.438Z,94.43
2023-04-01T22:24:21.402Z,94.27
2023-04-01T22:27:05.055Z,93.80
2023-04-01T22:30:00.898Z,93.79
2023-04-01T22:32:36.761Z,93.58
2023-04-01T22:35:22.736Z,93.70
2023-04-01T22:38:06.055Z,93.84
2023-04-01T22:40:53.056Z,94.25
2023-04-01T22:43:35.761Z,94.34
2023-04-01T22:46:10.099Z,94.95
2023-04-01T22:48:48.982Z,94.60
2023-04-01T22:51:25.585Z,94.70
2023-04-01T22:54:19.637Z,94.63
2023-04-01T22:56:57.927Z,95.02
2023-04-01T22:59:47.996Z,94.77
2023-04-01T23:02:43.457Z,95.35
2023-04-01T23:05:18.676Z,95.91
2023-04-01T23:07:59.156Z,96.36
2023-04-01T23:10:46.667Z,96.62
2023-04-01T23:13:26.941Z,96.88
2023-04-01T23:15:56.598Z,96.72
2023-04-01T23:18:46.916Z,95.87
2023-04-01T23:21:48.147Z,96.03
2023-04-01T23:24:27.971Z,96.44
2023-04-01T23:27:12.001Z,96.44
2023-04-01T23:29:44.259Z,96.59
2023-04-01T23:32:20.534Z,96.54
2023-04-01T23:35:01.071Z,96.80
2023-04-01T23:37:29.812Z,97.50
2023-04-01T23:39:59.722Z,97.72
2023-04-01T23:42:42.130Z,97.81
2023-04-01T23:45:18.659Z,97.60
2023-04-01T23:47:50.834Z,97.55
2023-04-01T23:50:26.816Z,97.84
2023-04-01T23:53:25.325Z,98.18
2023-04-01T23:55:55.337Z,97.59
2023-04-01T23:58:42.003Z,96.64
